Aérodrome :
LOGIN :

S'inscrire | Disclaimer

   EN    FR    IT 

 










Légende :    VFR   VFR Marginal   IFR   IFR Intensif   IFR Très Intensif
Visi : 
Plafond : 
>= 8 km
>= 3000ft
5 à 8 km
1000 à 3000 ft
1500m à 5 km
500 à 1000 ft
800 à 1500m
200 à 500 ft
< 800m
< 200 ft
Symboles :   Orages  Brouillard  Fortes neiges  Fortes précipitations  Vent > 20 kt
SIGMETs :   Divers  Orages  Givrage  Turbulence  Onde Orograph.  Cendres Volcan.







- Altitude de l'aérodrome : 697 ft
- Code IATA : PEG


LIRZ - San Edigio Perugia

DERNIER METAR :
  • 162350Z AUTO 33004KT 9999 BKN082/// BKN100/// 18/15 Q1018

METARs EXPIRÉS :
  • 162250Z AUTO 35004KT 9999 BKN066/// 18/15 Q1018
  • 162150Z AUTO 35006KT 9999 FEW061/// BKN077/// BKN100/// 18/15 Q1018

TAF TAF LIRZ
Valide du 17 à 00h jusqu'au 18 à 00h UTC


162300Z 1700/1724 03008KT 9999 SCT040
TEMPO 1713/1718 4000 SHRA
Pas de NOTAMs connus pour ce terrain.
1 SIGMET publié pour la FIR Roma (LIRR) :
 
Orages noyés dans la masse
LIRR SIGMET 3 VALID 162200/170200 LIIB
LIRR ROMA FIR EMBD TS OBS WI N4125 E01204 - N3840 E00913 - N3722 E01143 - N3636 E01138 - N3639 E01311 - N3816 E01224 - N3843 E01440 - N4125 E01204 TOP FL390 STNR NC=



MET'MAP, la Météo Aéronautique d'un coup d'oeil ! - Copyright ORBIFLY Décembre 2007 - Disclaimer

ORBIFLY MET'MAP TEAM :

Programmation & Développement : Alexandra Zaïnal
Conception & Développement : Baudouin d'Aumeries
Co-Programmation & Développement : Marc-Olivier Méhu
Soutien technique & logistique : Manuel Goepfert

Contact : metmap@orbifly.com




SOURCES & CREDITS :

   NOAA